Cruz Bay, VI (00830)

9:05 AM AST on February 11, 2016 (GMT -0400)
Great Cruz Bay, St John | | Change Station
CLOSE
Current Station
Personal Weather Station
Location: St John, VI
Elevation: 59 ft
Nearby Weather Stations
Active Advisory: Coastal Hazard Statement

Elev 59 ft 18.33 °N, 64.79 °W | Updated 13 minutes ago

Partly Cloudy
Partly Cloudy
80.5 °F
Feels Like 84 °F
N
7.0
Wind Variable Wind from ESE
Gusts 10.0 mph

Today
High -- | Low -- °F
--% Chance of Precip.
Yesterday
High -- | Low -- °F
Precip. -- in
Pressure 30.12 in
Visibility 10.0 miles
Clouds Few 2900 ft
Heat Index 84 °F
Dew Point 70 °F
Humidity 71%
Rainfall in
Snow Depth Not available.
6:48 AM 6:18 PM
Waxing Crescent, 12% visible
METAR TIST 111253Z 09009KT 10SM FEW029 27/21 A3012 RMK AO2 SLP199 T02670206
Pressure 30.12 in
Visibility 10.0 miles
Clouds Few 2900 ft
Heat Index 84 °F
Dew Point 70 °F
Humidity 71%
Rainfall in
Snow Depth Not available.
6:48 AM 6:18 PM
Waxing Crescent, 12% visible
METAR TIST 111253Z 09009KT 10SM FEW029 27/21 A3012 RMK AO2 SLP199 T02670206

10-Day Weather Forecast

Almanac

Astronomy

Feb. 11, 2016 Rise Set
Actual Time
Civil Twilight
Nautical Twilight
Astronomical Twilight
Moon
Length of Visible Light
Length of Day
Tomorrow will be .
, % of the Moon is Illuminated

Today's Extremes

State Highs State Lows

Community

WunderPhotos

Upload Photos

1,892,038 photos uploaded!

WunderBlog® & News

Nearby

Air Quality

  Air Quality AQ Index Pollutant
Not available.

Snow Depth

Station Depth Elevation

Earthquake Activity

City Distance Mag. Time & Date
Minimum magnitude displayed is 2.5.

Coastal Water Temperatures

Place Temperature

Stations

Nearby Weather Stations

Station Location Temp. Windchill Dew Point Humidity Wind Precip. Elev Updated Type
                   

Watches & Warnings

Coastal Hazard Statement
Issued: 4:30 AM AST Feb. 11, 2016 – National Weather Service

... High rip current risk remains in effect through this afternoon...

* location... north facing beaches of Puerto Rico... Culebra and
the northern U.S. Virgin Islands.

* Timing... through this afternoon.

* Impacts... large breaking waves will create strong rip currents.

Precautionary/preparedness actions...

There is a high risk of rip currents.

Rip currents are powerful channels of water flowing quickly away
from shore... which occur most often at low spots or breaks in The
Sandbar and in the vicinity of structures such as groins...
jetties and piers. Heed the advice of lifeguards... beach patrol
flags and signs.

If you become caught in a rip current... Yell for help. Remain
calm... do not exhaust yourself and stay afloat while waiting for
help. If you have to swim out of a rip current... swim parallel to
shore and back toward the beach when possible. Do not attempt to
swim directly against a rip current as you will tire quickly.